Petit Wanze, Belgium

11:58 AM CEST on June 29, 2017 (GMT +0200)
Jehay | | Change Station

Elev 0 ft 50.57 °N, 5.30 °E | Updated 4 minutes ago

Mostly Cloudy
Mostly Cloudy
69.1 °F
Feels Like 69.1 °F
N
5.0
Wind Variable Wind from SW
Gusts 8.7 mph

Today
High -- | Low -- °F
--% Chance of Precip.
Yesterday
High -- | Low -- °F
Precip. -- in
Pressure 29.47 in
Visibility 6.2 miles
Clouds Scattered Clouds 1700 ft
Mostly Cloudy 22000 ft
Dew Point 58 °F
Humidity 68%
Rainfall 0.00 in
Snow Depth Not available.
5:30 AM 9:54 PM
Waxing Crescent, 34% visible
METAR EBFS 290925Z 23008KT 9999 SCT017 BKN220 16/12 Q0998 WHT WHT BECMG BLU
Pressure 29.47 in
Visibility 6.2 miles
Clouds Scattered Clouds 1700 ft
Mostly Cloudy 22000 ft
Dew Point 58 °F
Humidity 68%
Rainfall 0.00 in
Snow Depth Not available.
5:30 AM 9:54 PM
Waxing Crescent, 34% visible
METAR EBFS 290925Z 23008KT 9999 SCT017 BKN220 16/12 Q0998 WHT WHT BECMG BLU

Get Severe Weather Alerts

Thanks for signing up!

Be on the lookout for a verification email in your inbox.

You'll start receiving the daily forecast at 6 AM.

×

10-Day Weather Forecast

×

Almanac

Astronomy

Jun. 29, 2017 Rise Set
Actual Time
Civil Twilight
Nautical Twilight
Astronomical Twilight
Moon
Length of Visible Light
Length of Day
Tomorrow will be .
, % of the Moon is Illuminated

Today's Extremes

Country Highs Country Lows

Community

WunderPhotos

Category 6

Welcome to Category 6. This is the collective home for Weather Underground's featured writeups by Dr. Jeff Masters (right), Bob Henson (left), Chris Burt, and other regular contributors.

Nearby

Air Quality

  Air Quality AQ Index Pollutant
Not available.

Snow Depth

Station Depth Elevation

Earthquake Activity

City Distance Mag. Time & Date
Minimum magnitude displayed is 2.5.

Coastal Water Temperatures

Place Temperature

Stations

Nearby Weather Stations

Station Location Temp. Windchill Dew Point Humidity Wind Precip. Elev Updated Type